Hauptseite
METAR-TAF:

METAR-TAF

Flughäfen :

Geilenkirchen, Deutschland

NATO-Flugplatz Geilenkirchen

Breite: 50-57-39N, Länge: 006-2-33E, Höhe: 90 m

Beobachtung

Neuester Wetterbericht von vor 10 Minuten, um 08:50 UTC
Wind 9 kt aus Süd/Südwest
Temperatur 11°C
Luftfeuchtigkeit 66%
Luftdruck 1002 hPa
Sichtweite 10 km oder mehr
Leicht bewölkt in der Höhe von 3200 ft
Durchbrochene Bewölkung in der Höhe von 4000 ft

METAR: ETNG 270850Z 21009KT 9999 FEW032 BKN040 11/05 Q1002 NOSIG

Zeit: 10:00 (09:00 UTC)


TAF: fehlend

Wetterbeobachtungen und Prognosen von mehr als 4000 Flughäfen (METAR und TAF Bericht).

Die verfügbaren Stationen werden durch gelbe und rote Markierungen auf der Karte dargestellt.

Führen Sie die Maus auf sie, um den Namen der Station zu sehen.

Darauf klicken, um die Beobachtung von Wetterbeobachtungen und Prognosen zu sehen.

Um die Karte zu ändern : klicken Sie auf den grünen Tasten mit einem schwarzen Kreuz Zum Vergrößern, auf den grünen Button mit einem Gedankenstrich zu verkleinern, oder auf die grünen Pfeile für benachbarte Karten.


METAR-TAF: